Time;durP1;ratioP1;P1;durP2;ratioP2;P2;SDS_P1;SDS_P2;PMS_P1;PMS_P2;Temp;Humidity;BMP_temperature;BMP_pressure;BME280_temperature;BME280_humidity;BME280_pressure;Samples;Min_cycle;Max_cycle;Signal;HPM_P1;HPM_P2
2023/11/23 00:03:01;;;;;;;;;;;;;;;;;;10429842;28;19900;-76
2023/11/23 00:08:01;;;;;;;;;;;;;;;;;;10435781;28;20095;-76
2023/11/23 00:13:01;;;;;;;;;;;;;;;;;;10418261;28;19932;-75
2023/11/23 00:18:01;;;;;;;;;;;;;;;;;;10417423;28;19905;-76
2023/11/23 00:23:01;;;;;;;;;;;;;;;;;;10417648;28;19901;-76
2023/11/23 00:28:01;;;;;;;;;;;;;;;;;;10417750;28;19901;-76
2023/11/23 00:33:01;;;;;;;;;;;;;;;;;;10417639;28;20248;-76
2023/11/23 00:38:03;;;;;;;;;;;;;;;;;;10417310;28;20206;-75
2023/11/23 00:43:03;;;;;;;;;;;;;;;;;;10430296;28;19908;-75
2023/11/23 00:48:03;;;;;;;;;;;;;;;;;;10430863;28;19980;-76
2023/11/23 00:53:03;;;;;;;;;;;;;;;;;;10430512;28;20146;-77
2023/11/23 00:58:04;;;;;;;;;;;;;;;;;;10430751;28;19905;-77
2023/11/23 01:03:04;;;;;;;;;;;;;;;;;;10430735;28;19908;-77
2023/11/23 01:08:04;;;;;;;;;;;;;;;;;;10431026;28;19901;-76
2023/11/23 01:13:06;;;;;;;;;;;;;;;;;;10430410;28;19905;-76
2023/11/23 01:18:06;;;;;;;;;;;;;;;;;;10462542;28;19927;-76
2023/11/23 01:23:06;;;;;;;;;;;;;;;;;;10430146;28;19908;-77
2023/11/23 01:28:06;;;;;;;;;;;;;;;;;;10430212;28;20076;-75
2023/11/23 01:33:07;;;;;;;;;;;;;;;;;;10429708;28;19912;-76
2023/11/23 01:38:07;;;;;;;;;;;;;;;;;;10429875;28;19955;-75
2023/11/23 01:43:10;;;;;;;;;;;;;;;;;;10461893;28;20352;-75
2023/11/23 01:48:11;;;;;;;;;;;;;;;;;;10429623;28;19901;-76
2023/11/23 01:53:11;;;;;;;;;;;;;;;;;;10425297;28;20125;-76
2023/11/23 01:58:11;;;;;;;;;;;;;;;;;;10423106;28;19959;-76
2023/11/23 02:03:11;;;;;;;;;;;;;;;;;;10422927;28;20123;-77
2023/11/23 02:08:12;;;;;;;;;;;;;;;;;;10438050;28;19901;-77
2023/11/23 02:13:12;;;;;;;;;;;;;;;;;;10454584;28;20250;-75
2023/11/23 02:18:12;;;;;;;;;;;;;;;;;;10422197;28;19905;-76
2023/11/23 02:23:12;;;;;;;;;;;;;;;;;;10422446;28;20194;-75
2023/11/23 02:28:12;;;;;;;;;;;;;;;;;;10422448;28;19943;-75
2023/11/23 02:33:13;;;;;;;;;;;;;;;;;;10421691;28;19921;-74
2023/11/23 02:38:14;;;;;;;;;;;;;;;;;;10421322;28;19908;-76
2023/11/23 02:43:14;;;;;;;;;;;;;;;;;;10413211;28;20099;-75
2023/11/23 02:48:14;;;;;;;;;;;;;;;;;;10397616;28;19925;-76
2023/11/23 02:53:28;;;;;;;;;;;;;;;;;;10421562;28;19939;-77
2023/11/23 02:58:28;;;;;;;;;;;;;;;;;;10420524;28;19940;-75
2023/11/23 03:03:29;;;;;;;;;;;;;;;;;;10451064;28;19951;-77
2023/11/23 03:08:29;;;;;;;;;;;;;;;;;;10420851;28;19909;-76
2023/11/23 03:13:29;;;;;;;;;;;;;;;;;;10420322;28;20179;-76
2023/11/23 03:18:29;;;;;;;;;;;;;;;;;;10420630;28;19905;-75
2023/11/23 03:23:30;;;;;;;;;;;;;;;;;;10419926;28;19901;-75
2023/11/23 03:28:30;;;;;;;;;;;;;;;;;;10419563;28;19960;-76
2023/11/23 03:33:31;;;;;;;;;;;;;;;;;;10419239;28;19913;-77
2023/11/23 03:38:32;;;;;;;;;;;;;;;;;;10419737;28;20253;-75
2023/11/23 03:43:33;;;;;;;;;;;;;;;;;;10419486;28;19909;-74
2023/11/23 03:48:33;;;;;;;;;;;;;;;;;;10418373;28;20217;-75
2023/11/23 03:53:33;;;;;;;;;;;;;;;;;;10410033;28;19940;-76
2023/11/23 03:58:33;;;;;;;;;;;;;;;;;;10413464;28;19912;-74
2023/11/23 04:03:34;;;;;;;;;;;;;;;;;;10418354;28;20142;-73
2023/11/23 04:08:34;;;;;;;;;;;;;;;;;;10418356;28;19976;-74
2023/11/23 04:13:34;;;;;;;;;;;;;;;;;;10404303;28;20179;-75
2023/11/23 04:18:35;;;;;;;;;;;;;;;;;;10417459;28;20062;-77
2023/11/23 04:23:35;;;;;;;;;;;;;;;;;;10449971;28;19905;-74
2023/11/23 04:28:35;;;;;;;;;;;;;;;;;;10417459;28;19913;-74
2023/11/23 04:33:35;;;;;;;;;;;;;;;;;;10417531;28;19971;-75
2023/11/23 04:38:35;;;;;;;;;;;;;;;;;;10416632;28;19916;-76
2023/11/23 04:43:35;;;;;;;;;;;;;;;;;;10394615;28;19932;-74
2023/11/23 04:48:35;;;;;;;;;;;;;;;;;;10396300;28;19908;-75
2023/11/23 04:53:35;;;;;;;;;;;;;;;;;;10420238;28;19992;-75
2023/11/23 04:58:35;;;;;;;;;;;;;;;;;;10417417;28;19905;-75
2023/11/23 05:03:36;;;;;;;;;;;;;;;;;;10416253;28;19905;-75
2023/11/23 05:08:36;;;;;;;;;;;;;;;;;;10416743;28;19909;-73
2023/11/23 05:13:36;;;;;;;;;;;;;;;;;;10416529;28;19932;-76
2023/11/23 05:18:37;;;;;;;;;;;;;;;;;;10414995;28;20222;-76
2023/11/23 05:23:37;;;;;;;;;;;;;;;;;;10415340;28;19921;-75
2023/11/23 05:28:37;;;;;;;;;;;;;;;;;;10401038;28;19916;-75
2023/11/23 05:33:37;;;;;;;;;;;;;;;;;;10395742;28;19918;-74
2023/11/23 05:38:37;;;;;;;;;;;;;;;;;;10407363;28;19909;-75
2023/11/23 05:43:37;;;;;;;;;;;;;;;;;;10420446;28;19923;-75
2023/11/23 05:48:38;;;;;;;;;;;;;;;;;;10452248;28;20210;-76
2023/11/23 05:53:38;;;;;;;;;;;;;;;;;;10437826;28;19913;-76
2023/11/23 05:58:38;;;;;;;;;;;;;;;;;;10422867;28;19940;-75
2023/11/23 06:03:38;;;;;;;;;;;;;;;;;;10422305;28;20141;-77
2023/11/23 06:08:38;;;;;;;;;;;;;;;;;;10437192;28;19901;-75
2023/11/23 06:13:38;;;;;;;;;;;;;;;;;;10421868;28;20003;-76
2023/11/23 06:18:39;;;;;;;;;;;;;;;;;;10418556;28;19967;-76
2023/11/23 06:23:39;;;;;;;;;;;;;;;;;;10418745;28;20142;-76
2023/11/23 06:28:39;;;;;;;;;;;;;;;;;;10418567;28;20137;-78
2023/11/23 06:33:39;;;;;;;;;;;;;;;;;;10420317;28;19921;-77
2023/11/23 06:38:39;;;;;;;;;;;;;;;;;;10420896;28;19955;-77
2023/11/23 06:43:39;;;;;;;;;;;;;;;;;;10421162;28;19909;-76
2023/11/23 06:48:39;;;;;;;;;;;;;;;;;;10421037;28;19939;-77
2023/11/23 06:53:46;;;;;;;;;;;;;;;;;;10420401;28;19946;-76
2023/11/23 06:58:46;;;;;;;;;;;;;;;;;;10397545;28;19936;-73
2023/11/23 07:03:46;;;;;;;;;;;;;;;;;;10416322;28;19908;-73
2023/11/23 07:08:47;;;;;;;;;;;;;;;;;;10417557;28;19907;-76
2023/11/23 07:13:47;;;;;;;;;;;;;;;;;;10417503;28;20175;-75
2023/11/23 07:18:47;;;;;;;;;;;;;;;;;;10448945;28;20031;-72
2023/11/23 07:23:47;;;;;;;;;;;;;;;;;;10415617;28;19911;-73
2023/11/23 07:28:48;;;;;;;;;;;;;;;;;;10416642;28;19905;-72
2023/11/23 07:33:49;;;;;;;;;;;;;;;;;;10416908;28;19929;-72
2023/11/23 07:38:49;;;;;;;;;;;;;;;;;;10418233;28;19917;-73
2023/11/23 07:43:50;;;;;;;;;;;;;;;;;;10415415;28;19923;-70
2023/11/23 07:48:52;;;;;;;;;;;;;;;;;;10444615;28;19928;-71
2023/11/23 07:53:52;;;;;;;;;;;;;;;;;;10416486;28;19905;-71
2023/11/23 07:58:52;;;;;;;;;;;;;;;;;;10413868;28;20094;-71
2023/11/23 08:03:52;;;;;;;;;;;;;;;;;;10412196;28;19913;-70
2023/11/23 08:08:53;;;;;;;;;;;;;;;;;;10415328;28;20187;-71
2023/11/23 08:13:55;;;;;;;;;;;;;;;;;;10415188;28;19904;-71
2023/11/23 08:18:55;;;;;;;;;;;;;;;;;;10416842;28;19909;-72
2023/11/23 08:23:55;;;;;;;;;;;;;;;;;;10415013;28;19905;-72
2023/11/23 08:28:56;;;;;;;;;;;;;;;;;;10409618;28;19913;-71
2023/11/23 08:33:57;;;;;;;;;;;;;;;;;;10410458;28;19928;-71
2023/11/23 08:38:57;;;;;;;;;;;;;;;;;;10411058;28;19921;-71
2023/11/23 08:43:57;;;;;;;;;;;;;;;;;;10411617;28;19962;-71
2023/11/23 08:48:57;;;;;;;;;;;;;;;;;;10415900;28;20047;-71
2023/11/23 08:53:57;;;;;;;;;;;;;;;;;;10414429;28;20245;-71
2023/11/23 08:58:58;;;;;;;;;;;;;;;;;;10442709;28;19909;-71
2023/11/23 09:04:01;;;;;;;;;;;;;;;;;;10420891;28;19913;-74
2023/11/23 09:09:01;;;;;;;;;;;;;;;;;;10420056;28;20265;-70
2023/11/23 09:14:02;;;;;;;;;;;;;;;;;;10422577;28;19905;-71
2023/11/23 09:19:02;;;;;;;;;;;;;;;;;;10419096;28;19908;-71
2023/11/23 09:24:06;;;;;;;;;;;;;;;;;;10422296;28;20099;-71
2023/11/23 09:29:06;;;;;;;;;;;;;;;;;;10422072;28;19951;-71
2023/11/23 09:34:06;;;;;;;;;;;;;;;;;;10420746;28;19919;-71
2023/11/23 09:39:07;;;;;;;;;;;;;;;;;;10419313;28;19921;-71
2023/11/23 09:44:08;;;;;;;;;;;;;;;;;;10421043;28;20210;-71
2023/11/23 09:49:08;;;;;;;;;;;;;;;;;;10420547;28;19905;-71
2023/11/23 09:54:08;;;;;;;;;;;;;;;;;;10421441;28;19905;-71
2023/11/23 09:59:08;;;;;;;;;;;;;;;;;;10419183;28;19908;-71
2023/11/23 10:04:08;;;;;;;;;;;;;;;;;;10418225;28;20098;-71
2023/11/23 10:09:09;;;;;;;;;;;;;;;;;;10420085;28;20218;-71
2023/11/23 10:14:09;;;;;;;;;;;;;;;;;;10417947;28;20219;-71
2023/11/23 10:19:10;;;;;;;;;;;;;;;;;;10420212;28;19920;-71
2023/11/23 10:24:12;;;;;;;;;;;;;;;;;;10421240;28;20284;-71
2023/11/23 10:29:13;;;;;;;;;;;;;;;;;;10418073;28;19912;-71
2023/11/23 10:34:13;;;;;;;;;;;;;;;;;;10417132;28;19952;-72
2023/11/23 10:39:15;;;;;;;;;;;;;;;;;;10418705;28;20242;-71
2023/11/23 10:44:15;;;;;;;;;;;;;;;;;;10419451;28;19913;-70
2023/11/23 10:49:15;;;;;;;;;;;;;;;;;;10417069;28;19905;-71
2023/11/23 10:54:15;;;;;;;;;;;;;;;;;;10421955;28;20087;-76
2023/11/23 10:59:20;;;;;;;;;;;;;;;;;;10414986;28;19917;-74
2023/11/23 11:04:20;;;;;;;;;;;;;;;;;;10416834;28;19913;-75
2023/11/23 11:09:22;;;;;;;;;;;;;;;;;;10417359;28;19913;-75
2023/11/23 11:14:22;;;;;;;;;;;;;;;;;;10416008;28;20281;-77
2023/11/23 11:19:22;;;;;;;;;;;;;;;;;;10418465;28;19913;-76
2023/11/23 11:24:26;;;;;;;;;;;;;;;;;;10414412;28;20406;-76
2023/11/23 11:29:26;;;;;;;;;;;;;;;;;;10416863;28;19977;-76
2023/11/23 11:34:28;;;;;;;;;;;;;;;;;;10416429;28;19913;-75
2023/11/23 11:39:28;;;;;;;;;;;;;;;;;;10445835;28;19913;-75
2023/11/23 11:44:33;;;;;;;;;;;;;;;;;;10415170;28;20103;-75
2023/11/23 11:49:34;;;;;;;;;;;;;;;;;;10416142;28;19920;-76
2023/11/23 11:54:38;;;;;;;;;;;;;;;;;;10419718;28;19909;-74
2023/11/23 11:59:38;;;;;;;;;;;;;;;;;;10410135;28;19984;-76
2023/11/23 12:04:39;;;;;;;;;;;;;;;;;;10417248;28;19964;-78
2023/11/23 12:09:39;;;;;;;;;;;;;;;;;;10452509;28;19917;-79
2023/11/23 12:14:40;;;;;;;;;;;;;;;;;;10447375;28;19908;-81
2023/11/23 12:19:40;;;;;;;;;;;;;;;;;;10417679;28;19924;-83
2023/11/23 12:24:40;;;;;;;;;;;;;;;;;;10418598;28;20094;-80
2023/11/23 12:29:43;;;;;;;;;;;;;;;;;;10412720;28;20175;-75
2023/11/23 12:34:43;;;;;;;;;;;;;;;;;;10414368;28;19932;-75
2023/11/23 12:39:44;;;;;;;;;;;;;;;;;;10416593;28;20173;-76
2023/11/23 12:44:45;;;;;;;;;;;;;;;;;;10412466;28;19976;-80
2023/11/23 12:49:45;;;;;;;;;;;;;;;;;;10414231;28;19913;-77
2023/11/23 12:54:45;;;;;;;;;;;;;;;;;;10415339;28;19936;-73
2023/11/23 12:59:45;;;;;;;;;;;;;;;;;;10412450;28;19909;-74
2023/11/23 13:04:45;;;;;;;;;;;;;;;;;;10411181;28;19905;-74
2023/11/23 13:09:45;;;;;;;;;;;;;;;;;;10412031;28;19958;-72
2023/11/23 13:14:48;;;;;;;;;;;;;;;;;;10409878;28;19921;-74
2023/11/23 13:19:48;;;;;;;;;;;;;;;;;;10409235;28;19916;-73
2023/11/23 13:24:49;;;;;;;;;;;;;;;;;;10409190;28;20186;-74
2023/11/23 13:29:49;;;;;;;;;;;;;;;;;;10409433;28;19940;-73
2023/11/23 13:34:49;;;;;;;;;;;;;;;;;;10411470;28;19952;-73
2023/11/23 13:39:50;;;;;;;;;;;;;;;;;;10414256;28;19940;-73
2023/11/23 13:44:50;;;;;;;;;;;;;;;;;;10413145;28;20006;-72
2023/11/23 13:49:50;;;;;;;;;;;;;;;;;;10416929;28;19908;-72
2023/11/23 13:54:50;;;;;;;;;;;;;;;;;;10422298;28;19998;-74
2023/11/23 13:59:50;;;;;;;;;;;;;;;;;;10418152;28;20229;-72
2023/11/23 14:04:51;;;;;;;;;;;;;;;;;;10417187;28;19944;-74
2023/11/23 14:09:51;;;;;;;;;;;;;;;;;;10451217;28;19912;-73
2023/11/23 14:14:52;;;;;;;;;;;;;;;;;;10420508;28;20179;-73
2023/11/23 14:19:52;;;;;;;;;;;;;;;;;;10422051;28;19924;-72
2023/11/23 14:24:53;;;;;;;;;;;;;;;;;;10418026;28;19919;-72
2023/11/23 14:29:54;;;;;;;;;;;;;;;;;;10419678;28;19905;-72
2023/11/23 14:34:54;;;;;;;;;;;;;;;;;;10450090;28;20151;-72
2023/11/23 14:39:54;;;;;;;;;;;;;;;;;;10444650;28;20175;-73
2023/11/23 14:44:55;;;;;;;;;;;;;;;;;;10412298;28;19967;-73
2023/11/23 14:49:55;;;;;;;;;;;;;;;;;;10446320;28;19976;-73
2023/11/23 14:54:55;;;;;;;;;;;;;;;;;;10415157;28;19932;-72
2023/11/23 14:59:58;;;;;;;;;;;;;;;;;;10411734;28;19908;-72
2023/11/23 15:04:58;;;;;;;;;;;;;;;;;;10412787;28;19943;-73
2023/11/23 15:09:58;;;;;;;;;;;;;;;;;;10412708;28;20126;-73
2023/11/23 15:14:58;;;;;;;;;;;;;;;;;;10416619;28;19912;-73
2023/11/23 15:19:58;;;;;;;;;;;;;;;;;;10414441;28;19985;-72
2023/11/23 15:24:59;;;;;;;;;;;;;;;;;;10446484;28;19905;-72
2023/11/23 15:29:59;;;;;;;;;;;;;;;;;;10414866;28;19917;-73
2023/11/23 15:35:01;;;;;;;;;;;;;;;;;;10414476;28;19927;-72
2023/11/23 15:40:01;;;;;;;;;;;;;;;;;;10420973;28;20198;-72
2023/11/23 15:45:02;;;;;;;;;;;;;;;;;;10413023;28;19913;-72
2023/11/23 15:50:07;;;;;;;;;;;;;;;;;;10412522;28;20179;-73
2023/11/23 15:55:08;;;;;;;;;;;;;;;;;;10443724;28;19912;-73
2023/11/23 16:00:11;;;;;;;;;;;;;;;;;;10425205;28;19905;-73
2023/11/23 16:05:11;;;;;;;;;;;;;;;;;;10411883;28;19946;-72
2023/11/23 16:10:12;;;;;;;;;;;;;;;;;;10410630;28;19901;-74
2023/11/23 16:15:12;;;;;;;;;;;;;;;;;;10411625;28;19909;-73
2023/11/23 16:20:15;;;;;;;;;;;;;;;;;;10440931;28;19913;-74
2023/11/23 16:25:15;;;;;;;;;;;;;;;;;;10411197;28;19901;-73
2023/11/23 16:30:15;;;;;;;;;;;;;;;;;;10410532;28;20091;-73
2023/11/23 16:35:16;;;;;;;;;;;;;;;;;;10412347;28;20123;-73
2023/11/23 16:40:16;;;;;;;;;;;;;;;;;;10426699;28;19912;-73
2023/11/23 16:45:16;;;;;;;;;;;;;;;;;;10442559;28;19959;-73
2023/11/23 16:50:16;;;;;;;;;;;;;;;;;;10410521;28;19976;-73
2023/11/23 16:55:16;;;;;;;;;;;;;;;;;;10411398;28;19909;-73
2023/11/23 17:00:17;;;;;;;;;;;;;;;;;;10409939;28;19908;-73
2023/11/23 17:05:18;;;;;;;;;;;;;;;;;;10410391;28;19939;-72
2023/11/23 17:10:19;;;;;;;;;;;;;;;;;;10410760;28;20096;-74
2023/11/23 17:15:21;;;;;;;;;;;;;;;;;;10411039;28;19920;-73
2023/11/23 17:20:26;;;;;;;;;;;;;;;;;;10407637;28;20194;-70
2023/11/23 17:25:27;;;;;;;;;;;;;;;;;;10446374;28;19927;-71
2023/11/23 17:30:28;;;;;;;;;;;;;;;;;;10415525;28;20111;-73
2023/11/23 17:35:29;;;;;;;;;;;;;;;;;;10422161;28;19908;-71
2023/11/23 17:40:29;;;;;;;;;;;;;;;;;;10415798;28;19954;-71
2023/11/23 17:45:29;;;;;;;;;;;;;;;;;;10411949;28;19905;-71
2023/11/23 17:50:29;;;;;;;;;;;;;;;;;;10417068;28;19905;-71
2023/11/23 17:55:31;;;;;;;;;;;;;;;;;;10452719;28;19924;-70
2023/11/23 18:00:32;;;;;;;;;;;;;;;;;;10420787;28;20252;-70
2023/11/23 18:05:33;;;;;;;;;;;;;;;;;;10437257;28;20104;-69
2023/11/23 18:10:33;;;;;;;;;;;;;;;;;;10420336;28;19973;-70
2023/11/23 18:15:33;;;;;;;;;;;;;;;;;;10421015;28;19959;-70
2023/11/23 18:20:34;;;;;;;;;;;;;;;;;;10450491;28;19948;-72
2023/11/23 18:25:35;;;;;;;;;;;;;;;;;;10415364;28;20156;-75
2023/11/23 18:30:36;;;;;;;;;;;;;;;;;;10417047;28;19921;-80
2023/11/23 18:35:36;;;;;;;;;;;;;;;;;;10416855;28;20192;-74
2023/11/23 18:40:37;;;;;;;;;;;;;;;;;;10417269;28;19947;-79
2023/11/23 18:45:40;;;;;;;;;;;;;;;;;;10418848;28;19943;-80
2023/11/23 18:50:40;;;;;;;;;;;;;;;;;;10418723;28;19923;-79
2023/11/23 18:55:41;;;;;;;;;;;;;;;;;;10417352;28;19920;-80
2023/11/23 19:00:41;;;;;;;;;;;;;;;;;;10419657;28;19920;-82
2023/11/23 19:05:41;;;;;;;;;;;;;;;;;;10452349;28;19913;-77
2023/11/23 19:10:41;;;;;;;;;;;;;;;;;;10417484;28;20229;-76
2023/11/23 19:15:41;;;;;;;;;;;;;;;;;;10416802;28;19912;-75
2023/11/23 19:20:41;;;;;;;;;;;;;;;;;;10419217;28;19928;-78
2023/11/23 19:25:42;;;;;;;;;;;;;;;;;;10419399;28;20076;-82
2023/11/23 19:30:42;;;;;;;;;;;;;;;;;;10451379;28;19913;-80
2023/11/23 19:35:42;;;;;;;;;;;;;;;;;;10448653;28;19942;-79
2023/11/23 19:40:43;;;;;;;;;;;;;;;;;;10414724;28;19976;-82
2023/11/23 19:45:43;;;;;;;;;;;;;;;;;;10418154;28;19913;-80
2023/11/23 19:50:46;;;;;;;;;;;;;;;;;;10419074;28;19925;-77
2023/11/23 19:55:46;;;;;;;;;;;;;;;;;;10418234;28;19932;-80
2023/11/23 20:00:46;;;;;;;;;;;;;;;;;;10421037;28;20000;-78
2023/11/23 20:05:46;;;;;;;;;;;;;;;;;;10447924;28;20094;-76
2023/11/23 20:10:48;;;;;;;;;;;;;;;;;;10414607;28;19913;-74
2023/11/23 20:15:49;;;;;;;;;;;;;;;;;;10412210;28;19920;-83
2023/11/23 20:20:49;;;;;;;;;;;;;;;;;;10419383;28;20183;-80
2023/11/23 20:25:49;;;;;;;;;;;;;;;;;;10446376;28;19968;-75
2023/11/23 20:30:49;;;;;;;;;;;;;;;;;;10414866;28;19952;-76
2023/11/23 20:35:49;;;;;;;;;;;;;;;;;;10446792;28;19908;-75
2023/11/23 20:40:49;;;;;;;;;;;;;;;;;;10414715;28;20158;-73
2023/11/23 20:45:49;;;;;;;;;;;;;;;;;;10412011;28;19976;-74
2023/11/23 20:50:51;;;;;;;;;;;;;;;;;;10414806;28;20203;-74
2023/11/23 20:55:51;;;;;;;;;;;;;;;;;;10417552;28;20182;-76
2023/11/23 21:00:51;;;;;;;;;;;;;;;;;;10423101;28;19999;-75
2023/11/23 21:05:51;;;;;;;;;;;;;;;;;;10417346;28;20152;-75
2023/11/23 21:10:52;;;;;;;;;;;;;;;;;;10421250;28;19937;-76
2023/11/23 21:15:52;;;;;;;;;;;;;;;;;;10424688;28;19948;-76
2023/11/23 21:20:52;;;;;;;;;;;;;;;;;;10427571;28;20114;-75
2023/11/23 21:25:53;;;;;;;;;;;;;;;;;;10421364;28;19919;-74
2023/11/23 21:30:53;;;;;;;;;;;;;;;;;;10422292;28;19912;-75
2023/11/23 21:35:53;;;;;;;;;;;;;;;;;;10418867;28;19932;-77
2023/11/23 21:40:54;;;;;;;;;;;;;;;;;;10422127;28;20206;-75
2023/11/23 21:45:55;;;;;;;;;;;;;;;;;;10437112;28;19905;-75
2023/11/23 21:50:55;;;;;;;;;;;;;;;;;;10420593;28;20167;-75
2023/11/23 21:55:55;;;;;;;;;;;;;;;;;;10419863;28;19913;-75
2023/11/23 22:00:55;;;;;;;;;;;;;;;;;;10454105;28;19980;-75
2023/11/23 22:05:55;;;;;;;;;;;;;;;;;;10418488;28;19913;-75
2023/11/23 22:10:55;;;;;;;;;;;;;;;;;;10419374;28;19912;-74
2023/11/23 22:15:55;;;;;;;;;;;;;;;;;;10417659;28;19963;-75
2023/11/23 22:20:56;;;;;;;;;;;;;;;;;;10419676;28;20191;-75
2023/11/23 22:25:56;;;;;;;;;;;;;;;;;;10419790;28;19905;-74
2023/11/23 22:30:56;;;;;;;;;;;;;;;;;;10421599;28;19919;-75
2023/11/23 22:35:56;;;;;;;;;;;;;;;;;;10422212;28;20042;-75
2023/11/23 22:40:56;;;;;;;;;;;;;;;;;;10420860;28;19909;-76
2023/11/23 22:45:56;;;;;;;;;;;;;;;;;;10418143;28;20136;-74
2023/11/23 22:50:57;;;;;;;;;;;;;;;;;;10417851;28;19909;-76
2023/11/23 22:55:57;;;;;;;;;;;;;;;;;;10420101;28;19944;-76
2023/11/23 23:00:57;;;;;;;;;;;;;;;;;;10418047;28;19916;-76
2023/11/23 23:05:57;;;;;;;;;;;;;;;;;;10421999;28;20186;-76
2023/11/23 23:10:58;;;;;;;;;;;;;;;;;;10418199;28;19947;-75
2023/11/23 23:15:58;;;;;;;;;;;;;;;;;;10417586;28;20095;-75
2023/11/23 23:20:58;;;;;;;;;;;;;;;;;;10418530;28;19916;-76
2023/11/23 23:25:58;;;;;;;;;;;;;;;;;;10451085;28;19972;-75
2023/11/23 23:30:59;;;;;;;;;;;;;;;;;;10420451;28;19931;-77
2023/11/23 23:35:59;;;;;;;;;;;;;;;;;;10421759;28;19909;-76
2023/11/23 23:40:59;;;;;;;;;;;;;;;;;;10416050;28;20246;-76
2023/11/23 23:46:00;;;;;;;;;;;;;;;;;;10417647;28;19913;-76
2023/11/23 23:51:00;;;;;;;;;;;;;;;;;;10417128;28;19940;-75
2023/11/23 23:56:00;;;;;;;;;;;;;;;;;;10418095;28;19905;-76
